Riverside, Oregon
Current Conditions -  °F | °C
As of 12:53 PM on Friday 28 Nov 2014 (Local Time) from KBNO Reporting Station
Broken Clouds Broken Clouds  
Wind Chill: 47°   Ceiling: 7000
Heat Index: 47°   Visibility: 10mi
Dew Point: 30°   Wind: 0mph
Humidity: 52%   Direction: NA
Pressure: 29.74"   Gusts: NA
Location:  43.54°N, 118.16°W
Report Text: KBNO 282053Z AUTO 00000KT 10SM BKN070 08/M01 A2974 RMK AO2 SLP073 T00831011 58023
Loading
Personal Weather Stations






























Interactive Weather Map New forecast layout! Learn more

10-Day Weather Forecast

Advertisements
Track Severe Weather on mobile